• Join FlightAware (Why Join?)
  • Login
  • US Flag 
02:42AM EDT


 

Airport Tracker/Info


-or-


 

Live Flight TrackerFlight Track Log ✈ SWA2353 ✈ 10-May-2013 ✈ KSTL - KBWI

Flight Track Log - Related Links

Times and Time Zones

All times are in EDT time to prevent confusion due to time zone crossing. See the SWA2353 flight status page for this flight to view local times or setup timezone preferences in your user account.

Time Position Orientation Groundspeed Altitude Reporting Facility
EDT Latitude Longitude Course Direction KTS MPH feet Rate Location/Type
11:13PM 38.7833 -90.3833 82° East 186 214 3,700  Level Gateway (St. Louis) TRACON
11:13PM 38.8003 -90.3775 15° North 224 258 4,100 3,180 Climbing Kansas City Center
11:14PM 38.8064 -90.2847 85° East 266 306 7,800 3,480 Climbing Kansas City Center
11:15PM 38.8033 -90.1769 92° East 292 336 11,200 3,360 Climbing Kansas City Center
11:16PM 38.8017 -90.0406 91° East 369 425 14,700 3,480 Climbing Kansas City Center
11:17PM 38.7992 -89.8944 91° East 400 460 18,300 3,120 Climbing Kansas City Center
11:18PM 38.7679 -89.6385 82° East  Level FlightAware Approximate
11:18PM 38.7972 -89.7422 91° East 418 481 21,100  Level Kansas City Center
11:20PM 38.8025 -89.4222 89° East 471 542 26,600 2,520 Climbing Indianapolis Center
11:21PM 38.8242 -89.2511 81° East 481 554 29,000 2,160 Climbing Indianapolis Center
11:22PM 38.8472 -89.0753 80° East 495 570 31,000 960 Climbing Indianapolis Center
11:23PM 38.8836 -88.8669 77° East 496 571 31,000  Level Indianapolis Center
11:24PM 38.9142 -88.6947 77° East 494 568 31,000  Level Indianapolis Center
11:25PM 38.9444 -88.5200 77° East 497 572 31,000 1,020 Level Indianapolis Center
11:26PM 38.9756 -88.3456 77° East 498 573 33,100 1,980 Climbing Indianapolis Center
11:27PM 39.0039 -88.1747 78° East 489 563 35,100 1,620 Climbing Indianapolis Center
11:28PM 39.0342 -87.9997 77° East 496 571 36,500 1,320 Climbing Indianapolis Center
11:29PM 39.0650 -87.8189 78° East 510 587 37,800 1,380 Climbing Indianapolis Center
11:31PM 39.0953 -87.6386 78° East 512 589 39,400 1,440 Climbing Indianapolis Center
11:32PM 39.1231 -87.4717 78° East 509 586 40,800 780 Climbing Indianapolis Center
11:33PM 39.1525 -87.2942 78° East 508 585 41,000 60 Climbing Indianapolis Center
11:34PM 39.1806 -87.1178 78° East 507 583 41,000  Level Indianapolis Center
11:35PM 39.2092 -86.9403 78° East 510 587 41,000  Level Indianapolis Center
11:36PM 39.2422 -86.7286 79° East 508 585 41,000  Level Indianapolis Center
11:37PM 39.2703 -86.5522 78° East 509 586 41,000  Level Indianapolis Center
11:38PM 39.2975 -86.3747 79° East 511 588 41,000  Level Indianapolis Center
11:39PM 39.3247 -86.1981 79° East 509 586 41,000  Level Indianapolis Center
11:40PM 39.3514 -86.0217 79° East 510 587 41,000  Level Indianapolis Center
11:41PM 39.3783 -85.8442 79° East 509 586 41,000  Level Indianapolis Center
11:42PM 39.4053 -85.6672 79° East 508 585 41,000  Level Indianapolis Center
11:43PM 39.4372 -85.4525 79° East 510 587 41,000  Level Indianapolis Center
11:44PM 39.4631 -85.2731 79° East 512 589 41,000  Level Indianapolis Center
11:45PM 39.4881 -85.0925 80° East 513 590 41,000  Level Indianapolis Center
11:46PM 39.5139 -84.9164 79° East 504 580 41,000  Level Indianapolis Center
11:47PM 39.5389 -84.7383 80° East 503 579 41,000  Level Indianapolis Center
11:48PM 39.5636 -84.5589 80° East 501 577 41,000  Level Indianapolis Center
11:49PM 39.5886 -84.3800 80° East 501 577 41,000  Level Indianapolis Center
11:50PM 39.6122 -84.2014 80° East 498 573 41,000  Level Indianapolis Center
11:51PM 39.6353 -84.0231 80° East 498 573 41,000  Level Indianapolis Center
11:52PM 39.6592 -83.8447 80° East 499 574 41,000  Level Indianapolis Center
11:53PM 39.6831 -83.6650 80° East 503 579 41,000  Level Indianapolis Center
11:54PM 39.7050 -83.4881 81° East 502 578 41,000  Level Indianapolis Center
11:55PM 39.7314 -83.2836 80° East 499 574 41,000  Level Indianapolis Center
11:56PM 39.7503 -83.1061 82° East 497 572 41,000  Level Indianapolis Center
11:57PM 39.7475 -82.9269 91° East 495 570 41,000  Level Indianapolis Center
11:58PM 39.7467 -82.7456 90° East 496 571 41,000  Level Indianapolis Center
11:59PM 39.7450 -82.5647 91° East 497 572 41,000  Level Indianapolis Center
12:00AM 39.7431 -82.3814 91° East 502 578 41,000  Level Indianapolis Center
12:01AM 39.7406 -82.2008 91° East 499 574 41,000  Level Indianapolis Center
12:02AM 39.7375 -82.0183 91° East 501 577 41,000  Level Indianapolis Center
12:03AM 39.7358 -81.8389 91° East 495 570 41,000  Level Indianapolis Center
12:04AM 39.7325 -81.6569 91° East 499 574 41,000  Level Indianapolis Center
12:05AM 39.7294 -81.4783 91° East 492 566 41,000 -300 Level Indianapolis Center
12:06AM 39.7256 -81.2897 91° East 495 570 40,400 -720 Descending Indianapolis Center
12:07AM 39.7261 -81.1228 90° East 496 571 39,600 -900 Descending Cleveland Center
12:08AM 39.7206 -80.9339 92° East 501 577 38,700 -960 Descending Cleveland Center
12:09AM 39.7169 -80.7503 91° East 501 577 37,700 -1,200 Descending Cleveland Center
12:10AM 39.7128 -80.5642 92° East 506 582 36,400 -1,620 Descending Cleveland Center
12:11AM 39.7083 -80.3806 92° East 506 582 34,500 -1,620 Descending Cleveland Center
12:12AM 39.7017 -80.2028 93° East 506 582 33,200 -540 Descending Cleveland Center
12:14AM 39.6917 -79.8794 92° East 499 574 33,000 -120 Descending Washington Center
12:15AM 39.6853 -79.7011 93° East 499 574 33,000 -60 Level Washington Center
12:16AM 39.6789 -79.5228 93° East 499 574 32,900 -600 Descending Washington Center
12:17AM 39.6508 -79.3514 102° East 499 574 31,900 -1,080 Descending Washington Center
12:18AM 39.6172 -79.1583 103° East 499 574 30,800 -1,020 Descending Washington Center
12:19AM 39.5886 -78.9981 103° East 493 567 29,900 -960 Descending Washington Center
12:20AM 39.5600 -78.8244 102° East 493 567 28,900 -1,860 Descending Washington Center
12:21AM 39.5289 -78.6561 103° East 487 560 26,200 -3,540 Descending Washington Center
12:22AM 39.5017 -78.4936 102° East 469 540 21,900 -4,140 Descending Washington Center
12:23AM 39.4683 -78.3175 104° East 462 532 17,800 -3,480 Descending Washington Center
12:24AM 39.4403 -78.1633 103° East 451 519 15,100 -1,440 Descending Washington Center
12:25AM 39.4122 -78.0119 103° East 438 504 15,000 -60 Descending Washington Center
12:26AM 39.3881 -77.8633 102° East 427 491 15,000  Level Washington Center
12:27AM 39.3992 -77.7133 84° East 421 484 15,000 -60 Level Washington Center
12:28AM 39.4183 -77.5581 81° East 421 484 14,900 -960 Descending Washington Center
12:29AM 39.4083 -77.4047 95° East 420 483 13,100 -2,400 Descending Washington Center
12:29AM 39.4000 -77.3167 97° East 420 483 11,100 -1,680 Descending Potomac TRACON
12:31AM 39.3333 -77.0667 109° East 335 386 8,900 -1,260 Descending Potomac TRACON
12:32AM 39.2833 -76.9667 123° Southeast 315 362 7,400 -900 Descending Potomac TRACON
12:34AM 39.2333 -76.8667 123° Southeast 292 336 7,000 -780 Descending Potomac TRACON
12:35AM 39.1833 -76.7833 128° Southeast 299 344 5,800 -1,320 Descending Potomac TRACON
12:36AM 39.1333 -76.7167 134° Southeast 274 315 4,400 -1,140 Descending Potomac TRACON
12:37AM 39.0833 -76.6500 134° Southeast 196 226 3,600 -1,200 Descending Potomac TRACON
12:38AM 39.1000 -76.6167 57° Northeast 185 213 2,000 -1,320 Descending Potomac TRACON
12:39AM 39.1333 -76.6333 339° North 128 147 1,000 -1,020 Descending Potomac TRACON
12:41AM 39.1667 -76.6667 351° North  Level FlightAware Approximate
12:48AM 39.1754 -76.6683 351° North  Level Estimated
12:49AM 39.1754 -76.6683 351° North  Level Estimated
12:50AM 39.1754 -76.6683 351° North  Level Estimated
12:51AM 39.1754 -76.6683 351° North  Level Estimated